createdAt,value
2022-11-20T00:04:09.101Z,100836.91
2022-11-20T00:09:10.549Z,100830.03
2022-11-20T00:14:11.994Z,100824.66
2022-11-20T00:19:13.459Z,100829.38
2022-11-20T00:24:14.916Z,100831.19
2022-11-20T00:29:16.609Z,100831.19
2022-11-20T00:34:18.056Z,100831.66
2022-11-20T00:39:19.794Z,100830.16
2022-11-20T00:44:21.435Z,100818.28
2022-11-20T00:49:23.395Z,100827.16
2022-11-20T00:54:25.027Z,100822.03
2022-11-20T00:59:26.486Z,100811.69
2022-11-20T01:04:27.974Z,100820.22
2022-11-20T01:09:29.419Z,100811.28
2022-11-20T01:14:30.875Z,100820.56
2022-11-20T01:19:32.478Z,100811.78
2022-11-20T01:24:33.987Z,100811.88
2022-11-20T01:29:35.458Z,100803.34
2022-11-20T01:34:37.232Z,100798.41
2022-11-20T01:39:38.797Z,100801.56
2022-11-20T01:44:57.645Z,100807.13
2022-11-20T01:50:15.588Z,100813.75
2022-11-20T01:55:27.852Z,100797.22
2022-11-20T02:00:29.315Z,100798.38
2022-11-20T02:05:38.071Z,100801.28
2022-11-20T02:10:39.542Z,100784.19
2022-11-20T02:15:40.995Z,100791.63
2022-11-20T02:20:45.724Z,100788.75
2022-11-20T02:25:47.180Z,100792.19
2022-11-20T02:30:48.628Z,100766.63
2022-11-20T02:35:50.072Z,100768.25
2022-11-20T02:40:55.269Z,100767.84
2022-11-20T02:45:57.083Z,100766.84
2022-11-20T02:50:58.532Z,100749.69
2022-11-20T02:55:59.996Z,100746.38
2022-11-20T03:01:01.517Z,100740.94
2022-11-20T03:06:03.018Z,100728.63
2022-11-20T03:11:05.996Z,100721.34
2022-11-20T03:16:18.014Z,100733.31
2022-11-20T03:21:19.492Z,100721.56
2022-11-20T03:26:22.278Z,100722.53
2022-11-20T03:31:27.540Z,100701.44
2022-11-20T03:36:30.287Z,100697.91
2022-11-20T03:41:32.105Z,100716.84
2022-11-20T03:46:33.588Z,100715.84
2022-11-20T03:51:36.067Z,100715.94
2022-11-20T03:56:38.658Z,100718.44
2022-11-20T04:01:43.172Z,100702.47
2022-11-20T04:06:48.305Z,100703.28
2022-11-20T04:11:49.752Z,100703.00
2022-11-20T04:16:51.279Z,100703.88
2022-11-20T04:21:52.733Z,100715.00
2022-11-20T04:26:54.193Z,100708.41
2022-11-20T04:31:55.652Z,100694.41
2022-11-20T04:36:57.101Z,100679.50
2022-11-20T04:42:17.126Z,100679.78
2022-11-20T04:47:18.581Z,100683.53
2022-11-20T04:52:20.074Z,100677.41
2022-11-20T04:57:21.541Z,100676.28
2022-11-20T05:02:22.993Z,100669.47
2022-11-20T05:07:24.504Z,100676.88
2022-11-20T05:12:26.018Z,100677.25
2022-11-20T05:17:27.462Z,100669.66
2022-11-20T05:22:28.920Z,100667.47
2022-11-20T05:27:30.370Z,100661.47
2022-11-20T05:32:32.835Z,100651.53
2022-11-20T05:37:34.287Z,100655.56
2022-11-20T05:42:36.556Z,100638.34
2022-11-20T05:47:38.013Z,100642.31
2022-11-20T05:52:39.469Z,100643.75
2022-11-20T05:57:40.937Z,100641.75
2022-11-20T06:02:42.455Z,100637.72
2022-11-20T06:07:43.950Z,100622.38
2022-11-20T06:12:45.406Z,100630.44
2022-11-20T06:17:46.854Z,100634.16
2022-11-20T06:22:48.333Z,100631.34
2022-11-20T06:27:49.785Z,100629.66
2022-11-20T06:32:51.247Z,100636.88
2022-11-20T06:37:52.713Z,100633.19
2022-11-20T06:42:54.980Z,100637.13
2022-11-20T06:47:58.348Z,100636.28
2022-11-20T06:53:03.664Z,100635.38
2022-11-20T06:58:05.131Z,100638.06
2022-11-20T07:03:07.217Z,100632.81
2022-11-20T07:08:08.752Z,100632.31
2022-11-20T07:13:10.191Z,100635.84
2022-11-20T07:18:12.157Z,100631.38
2022-11-20T07:23:13.608Z,100629.63
2022-11-20T07:28:15.102Z,100623.75
2022-11-20T07:33:16.610Z,100640.56
2022-11-20T07:38:18.071Z,100630.88
2022-11-20T07:43:19.533Z,100622.31
2022-11-20T07:48:20.992Z,100635.22
2022-11-20T07:53:22.685Z,100628.38
2022-11-20T07:58:24.140Z,100632.19
2022-11-20T08:03:25.965Z,100629.13
2022-11-20T08:08:27.948Z,100636.34
2022-11-20T08:13:48.119Z,100642.63
2022-11-20T08:18:49.577Z,100636.41
2022-11-20T08:23:51.214Z,100634.34
2022-11-20T08:28:56.213Z,100643.16
2022-11-20T08:33:57.673Z,100647.47
2022-11-20T08:38:59.135Z,100639.53
2022-11-20T08:44:02.432Z,100646.22
2022-11-20T08:49:04.992Z,100643.72
2022-11-20T08:54:06.626Z,100654.03
2022-11-20T08:59:27.074Z,100641.97
2022-11-20T09:04:29.599Z,100649.72
2022-11-20T09:09:31.047Z,100646.78
2022-11-20T09:14:32.784Z,100638.69
2022-11-20T09:19:36.116Z,100642.19
2022-11-20T09:24:37.869Z,100645.94
2022-11-20T09:29:39.326Z,100641.75
2022-11-20T09:34:40.771Z,100620.22
2022-11-20T09:39:42.267Z,100623.97
2022-11-20T09:44:50.980Z,100622.72
2022-11-20T09:50:17.112Z,100617.00
2022-11-20T09:55:18.600Z,100608.22
2022-11-20T10:00:22.147Z,100608.53
2022-11-20T10:05:48.467Z,100610.31
2022-11-20T10:10:55.153Z,100608.66
2022-11-20T10:16:15.284Z,100606.78
2022-11-20T10:21:46.877Z,100606.91
2022-11-20T10:27:00.236Z,100602.13
2022-11-20T10:32:09.147Z,100598.28
2022-11-20T10:37:14.246Z,100592.06
2022-11-20T10:42:29.867Z,100585.75
2022-11-20T10:47:31.734Z,100580.22
2022-11-20T10:53:01.596Z,100587.81
2022-11-20T10:58:38.348Z,100579.00
2022-11-20T11:03:39.794Z,100578.19
2022-11-20T11:08:41.482Z,100579.66
2022-11-20T11:13:42.927Z,100573.09
2022-11-20T11:18:44.387Z,100571.69
2022-11-20T11:23:45.853Z,100568.13
2022-11-20T11:29:00.598Z,100565.78
2022-11-20T11:34:17.757Z,100564.00
2022-11-20T11:39:20.085Z,100545.84
2022-11-20T11:44:49.173Z,100547.56
2022-11-20T11:50:00.977Z,100540.56
2022-11-20T11:55:10.211Z,100525.22
2022-11-20T12:00:16.904Z,100530.66
2022-11-20T12:05:25.685Z,100530.84
2022-11-20T12:10:51.416Z,100523.25
2022-11-20T12:15:52.887Z,100511.00
2022-11-20T12:21:15.917Z,100507.81
2022-11-20T12:26:39.480Z,100506.69
2022-11-20T12:32:02.478Z,100502.75
2022-11-20T12:37:13.121Z,100510.59
2022-11-20T12:42:55.259Z,100503.53
2022-11-20T12:48:23.677Z,100495.47
2022-11-20T12:53:30.655Z,100495.91
2022-11-20T12:58:46.942Z,100496.50
2022-11-20T13:03:50.235Z,100495.81
2022-11-20T13:08:56.826Z,100482.50
2022-11-20T13:14:17.117Z,100481.44
2022-11-20T13:19:18.599Z,100488.53
2022-11-20T13:24:20.265Z,100469.47
2022-11-20T13:29:22.013Z,100467.69
2022-11-20T13:34:27.023Z,100473.50
2022-11-20T13:39:30.150Z,100472.28
2022-11-20T13:44:38.806Z,100472.72
2022-11-20T13:49:45.247Z,100474.59
2022-11-20T13:54:52.784Z,100466.78
2022-11-20T14:00:26.556Z,100457.66
2022-11-20T14:05:28.061Z,100463.31
2022-11-20T14:10:32.110Z,100448.63
2022-11-20T14:15:34.506Z,100450.81
2022-11-20T14:20:35.964Z,100449.41
2022-11-20T14:25:37.421Z,100455.72
2022-11-20T14:30:44.241Z,100443.31
2022-11-20T14:35:50.534Z,100445.81
2022-11-20T14:40:51.982Z,100431.75
2022-11-20T14:45:59.837Z,100427.31
2022-11-20T14:51:01.305Z,100427.94
2022-11-20T14:56:03.033Z,100429.22
2022-11-20T15:01:06.371Z,100417.28
2022-11-20T15:06:08.753Z,100410.53
2022-11-20T15:11:20.457Z,100398.19
2022-11-20T15:16:22.712Z,100390.06
2022-11-20T15:21:24.760Z,100380.84
2022-11-20T15:26:27.049Z,100382.78
2022-11-20T15:31:28.532Z,100368.97
2022-11-20T15:36:29.996Z,100360.66
2022-11-20T15:41:31.444Z,100357.38
2022-11-20T15:46:38.230Z,100360.41
2022-11-20T15:51:47.842Z,100359.78
2022-11-20T15:56:49.827Z,100351.19
2022-11-20T16:01:51.353Z,100342.28
2022-11-20T16:06:52.862Z,100339.09
2022-11-20T16:11:54.921Z,100321.88
2022-11-20T16:16:56.383Z,100329.63
2022-11-20T16:22:03.770Z,100336.22
2022-11-20T16:27:05.237Z,100339.00
2022-11-20T16:32:06.731Z,100328.28
2022-11-20T16:37:08.277Z,100331.69
2022-11-20T16:42:09.727Z,100337.50
2022-11-20T16:47:11.178Z,100324.72
2022-11-20T16:52:12.620Z,100324.91
2022-11-20T16:57:14.160Z,100325.44
2022-11-20T17:02:15.819Z,100320.91
2022-11-20T17:07:17.361Z,100322.13
2022-11-20T17:12:18.861Z,100316.34
2022-11-20T17:17:20.314Z,100319.97
2022-11-20T17:22:21.767Z,100323.25
2022-11-20T17:27:23.317Z,100315.28
2022-11-20T17:32:24.801Z,100312.50
2022-11-20T17:37:26.258Z,100305.84
2022-11-20T17:42:27.773Z,100317.53
2022-11-20T17:47:29.235Z,100303.78
2022-11-20T17:52:30.690Z,100305.56
2022-11-20T17:57:50.948Z,100305.84
2022-11-20T18:02:52.407Z,100304.72
2022-11-20T18:07:54.050Z,100308.31
2022-11-20T18:12:55.616Z,100305.53
2022-11-20T18:17:57.108Z,100298.00
2022-11-20T18:22:58.639Z,100290.25
2022-11-20T18:28:00.088Z,100287.41
2022-11-20T18:33:01.555Z,100276.06
2022-11-20T18:38:03.056Z,100267.13
2022-11-20T18:43:23.077Z,100259.59
2022-11-20T18:48:24.547Z,100270.53
2022-11-20T18:53:26.014Z,100259.09
2022-11-20T18:58:28.094Z,100254.75
2022-11-20T19:03:29.871Z,100262.97
2022-11-20T19:08:34.155Z,100262.34
2022-11-20T19:13:35.836Z,100250.78
2022-11-20T19:18:37.358Z,100246.72
2022-11-20T19:23:39.015Z,100245.47
2022-11-20T19:28:40.620Z,100243.44
2022-11-20T19:33:42.107Z,100234.34
2022-11-20T19:38:48.001Z,100219.41
2022-11-20T19:43:49.912Z,100219.09
2022-11-20T19:48:51.410Z,100214.28
2022-11-20T19:53:52.876Z,100224.59
2022-11-20T19:58:54.632Z,100237.28
2022-11-20T20:03:57.441Z,100224.06
2022-11-20T20:09:06.628Z,100228.25
2022-11-20T20:14:10.262Z,100235.22
2022-11-20T20:19:12.464Z,100223.00
2022-11-20T20:24:13.952Z,100223.94
2022-11-20T20:29:15.681Z,100222.97
2022-11-20T20:34:17.800Z,100216.09
2022-11-20T20:39:19.690Z,100224.59
2022-11-20T20:44:39.683Z,100219.09
2022-11-20T20:49:43.171Z,100216.75
2022-11-20T20:54:44.506Z,100217.84
2022-11-20T20:59:45.960Z,100210.28
2022-11-20T21:04:47.407Z,100215.59
2022-11-20T21:09:48.858Z,100214.28
2022-11-20T21:14:50.320Z,100216.50
2022-11-20T21:19:51.775Z,100209.38
2022-11-20T21:24:53.236Z,100214.84
2022-11-20T21:29:54.710Z,100208.69
2022-11-20T21:34:56.365Z,100205.72
2022-11-20T21:39:57.815Z,100205.53
2022-11-20T21:44:59.275Z,100200.19
2022-11-20T21:50:00.723Z,100191.88
2022-11-20T21:55:02.211Z,100177.53
2022-11-20T22:00:04.320Z,100178.88
2022-11-20T22:05:06.834Z,100167.09
2022-11-20T22:10:08.491Z,100163.09
2022-11-20T22:15:10.195Z,100166.09
2022-11-20T22:20:11.846Z,100168.25
2022-11-20T22:25:13.326Z,100158.22
2022-11-20T22:30:14.800Z,100168.44
2022-11-20T22:35:16.259Z,100171.75
2022-11-20T22:40:17.810Z,100168.13
2022-11-20T22:45:19.338Z,100170.88
2022-11-20T22:50:20.796Z,100172.22
2022-11-20T22:55:22.252Z,100176.16
2022-11-20T23:00:23.791Z,100174.97
2022-11-20T23:05:25.257Z,100166.59
2022-11-20T23:10:26.721Z,100160.84
2022-11-20T23:15:28.188Z,100159.81
2022-11-20T23:20:29.720Z,100148.31
2022-11-20T23:25:31.182Z,100143.91
2022-11-20T23:30:32.657Z,100142.53
2022-11-20T23:35:38.683Z,100146.44
2022-11-20T23:40:41.439Z,100151.22
2022-11-20T23:45:53.275Z,100155.47
2022-11-20T23:50:54.739Z,100151.03
2022-11-20T23:55:57.631Z,100149.72
